Time;durP1;ratioP1;P1;durP2;ratioP2;P2;SDS_P1;SDS_P2;PMS_P1;PMS_P2;Temp;Humidity;BMP_temperature;BMP_pressure;BME280_temperature;BME280_humidity;BME280_pressure;Samples;Min_cycle;Max_cycle;Signal;HPM_P1;HPM_P2
2023/07/21 00:01:01;;;;;;;2.88;1.55;;;;;;;19.14;50.82;96778.16;6055618;23;20409;-80
2023/07/21 00:03:26;;;;;;;2.78;1.42;;;;;;;19.15;51.19;96784.97;6018881;23;20488;-80
2023/07/21 00:05:52;;;;;;;2.28;1.50;;;;;;;19.11;51.68;96777.97;6031981;23;20077;-80
2023/07/21 00:08:18;;;;;;;1.55;1.33;;;;;;;19.14;51.75;96783.44;6052628;23;20353;-79
2023/07/21 00:10:44;;;;;;;2.45;1.70;;;;;;;19.00;52.53;96767.72;6020023;23;20301;-81
2023/07/21 00:13:09;;;;;;;2.63;1.38;;;;;;;19.08;52.71;96785.44;5997582;23;20235;-79
2023/07/21 00:15:35;;;;;;;1.52;1.35;;;;;;;18.96;52.16;96777.34;6029544;23;20156;-82
2023/07/21 00:18:01;;;;;;;2.70;1.42;;;;;;;18.93;52.79;96775.31;6032114;23;20073;-80
2023/07/21 00:20:26;;;;;;;3.80;1.67;;;;;;;18.89;52.60;96772.53;6024383;23;20092;-79
2023/07/21 00:22:52;;;;;;;1.67;1.50;;;;;;;18.81;52.96;96767.97;6000030;23;20338;-79
2023/07/21 00:25:17;;;;;;;2.33;1.35;;;;;;;18.83;53.63;96773.78;6023947;23;20197;-82
2023/07/21 00:27:44;;;;;;;1.60;1.50;;;;;;;18.81;53.03;96770.63;6057728;23;20407;-81
2023/07/21 00:30:10;;;;;;;1.75;1.15;;;;;;;18.78;52.86;96758.06;6000869;23;20092;-80
2023/07/21 00:32:37;;;;;;;2.03;1.67;;;;;;;18.76;53.16;96762.84;6048762;23;20119;-80
2023/07/21 00:35:05;;;;;;;2.65;1.35;;;;;;;18.66;53.33;96748.13;6057739;23;20176;-80
2023/07/21 00:37:31;;;;;;;1.67;1.33;;;;;;;18.71;53.45;96758.53;6056693;23;20309;-82
2023/07/21 00:39:56;;;;;;;1.50;1.40;;;;;;;18.70;53.33;96758.81;6043304;23;20566;-79
2023/07/21 00:42:22;;;;;;;1.85;1.33;;;;;;;18.72;53.51;96756.66;6029135;23;20136;-80
2023/07/21 00:44:48;;;;;;;1.50;1.40;;;;;;;18.71;52.58;96747.97;6015908;23;20081;-79
2023/07/21 00:47:13;;;;;;;1.92;1.40;;;;;;;18.75;53.14;96752.59;6017720;23;20330;-80
2023/07/21 00:49:39;;;;;;;1.52;1.42;;;;;;;18.75;53.12;96749.97;5993093;23;20140;-80
2023/07/21 00:52:05;;;;;;;1.92;1.20;;;;;;;18.77;53.29;96759.13;6018287;23;20187;-80
2023/07/21 00:54:31;;;;;;;2.35;1.38;;;;;;;18.76;53.42;96754.94;6015421;23;20191;-80
2023/07/21 00:56:57;;;;;;;2.20;1.67;;;;;;;18.77;52.86;96759.13;6049439;23;20334;-79
2023/07/21 00:59:23;;;;;;;2.35;1.45;;;;;;;18.68;53.85;96748.56;5993075;23;20189;-81
2023/07/21 01:01:51;;;;;;;3.08;1.67;;;;;;;18.63;54.04;96740.03;6049184;23;20355;-79
2023/07/21 01:04:17;;;;;;;1.58;1.25;;;;;;;18.62;54.10;96744.53;5988784;23;20623;-82
2023/07/21 01:06:44;;;;;;;2.40;1.63;;;;;;;18.45;53.57;96721.53;5970332;23;20259;-83
2023/07/21 01:09:12;;;;;;;1.60;1.20;;;;;;;18.43;53.64;96721.06;5981422;23;20271;-82
2023/07/21 01:11:38;;;;;;;2.30;1.30;;;;;;;18.42;53.90;96726.63;6029004;23;20168;-82
2023/07/21 01:14:05;;;;;;;1.67;1.38;;;;;;;18.53;53.75;96747.13;5908217;23;20398;-81
2023/07/21 01:16:33;;;;;;;1.65;1.55;;;;;;;18.57;53.46;96735.97;5995912;23;20247;-82
2023/07/21 01:18:59;;;;;;;2.20;1.50;;;;;;;18.49;53.93;96733.03;5972439;23;20572;-82
2023/07/21 01:21:37;;;;;;;3.30;1.30;;;;;;;18.55;54.21;96736.28;5996148;23;20584;-81
2023/07/21 01:24:09;;;;;;;1.85;1.30;;;;;;;18.49;54.39;96734.88;5885052;23;20612;-81
2023/07/21 01:26:36;;;;;;;2.30;1.27;;;;;;;18.43;54.23;96736.88;5884895;23;20232;-82
2023/07/21 01:29:04;;;;;;;1.58;1.42;;;;;;;18.42;54.63;96732.69;6029650;23;20244;-82
2023/07/21 01:31:29;;;;;;;1.20;1.10;;;;;;;18.43;54.05;96728.19;5972244;23;20711;-82
2023/07/21 01:33:55;;;;;;;1.52;1.40;;;;;;;18.42;54.48;96730.06;6029707;23;20142;-80
2023/07/21 01:36:21;;;;;;;1.60;1.45;;;;;;;18.43;53.88;96713.16;6029345;23;20328;-80
2023/07/21 01:38:47;;;;;;;1.77;1.40;;;;;;;18.44;54.03;96708.66;6028322;23;20181;-80
2023/07/21 01:41:13;;;;;;;1.80;1.25;;;;;;;18.57;53.35;96718.28;6029026;23;20652;-80
2023/07/21 01:43:39;;;;;;;2.55;1.38;;;;;;;18.58;53.44;96711.94;6004285;23;20173;-80
2023/07/21 01:46:04;;;;;;;2.08;1.40;;;;;;;18.61;53.30;96713.19;5995529;23;20146;-80
2023/07/21 01:48:29;;;;;;;1.40;1.30;;;;;;;18.61;52.95;96713.97;6029097;23;20322;-80
2023/07/21 01:50:56;;;;;;;1.90;1.38;;;;;;;18.67;53.22;96728.56;5996238;23;20176;-80
2023/07/21 01:53:24;;;;;;;2.10;1.70;;;;;;;18.69;53.01;96720.34;5970544;23;20275;-80
2023/07/21 01:55:58;;;;;;;1.85;1.60;;;;;;;18.69;54.04;96713.19;6004715;23;20184;-80
2023/07/21 01:58:24;;;;;;;2.30;1.48;;;;;;;18.55;53.97;96711.78;5875385;23;20225;-80
2023/07/21 02:00:50;;;;;;;1.48;1.38;;;;;;;18.67;53.89;96711.97;5995491;23;20228;-81
2023/07/21 02:03:16;;;;;;;1.33;1.23;;;;;;;18.67;53.62;96710.09;6025278;23;20205;-80
2023/07/21 02:05:41;;;;;;;1.50;1.38;;;;;;;18.69;53.52;96705.28;5875276;23;20567;-80
2023/07/21 02:08:08;;;;;;;3.90;1.83;;;;;;;18.69;53.05;96701.88;5994732;23;20077;-80
2023/07/21 02:10:33;;;;;;;1.90;1.40;;;;;;;18.72;53.64;96703.91;5906629;23;20269;-80
2023/07/21 02:12:58;;;;;;;3.17;1.50;;;;;;;18.77;53.26;96710.91;5874612;23;20697;-81
2023/07/21 02:15:24;;;;;;;2.40;1.50;;;;;;;18.76;53.10;96702.19;5994132;23;20393;-80
2023/07/21 02:17:49;;;;;;;2.53;1.60;;;;;;;18.77;52.48;96698.47;5883628;23;20221;-81
2023/07/21 02:20:15;;;;;;;1.48;1.30;;;;;;;18.84;52.08;96698.81;5874753;23;20642;-80
2023/07/21 02:22:43;;;;;;;1.63;1.25;;;;;;;18.80;52.44;96694.44;5907015;23;20169;-80
2023/07/21 02:25:15;;;;;;;2.85;1.75;;;;;;;18.85;52.48;96700.38;5875796;23;20514;-80
2023/07/21 02:27:41;;;;;;;1.95;1.10;;;;;;;18.81;52.58;96699.41;5995692;23;20146;-80
2023/07/21 02:30:07;;;;;;;2.10;1.90;;;;;;;18.79;53.50;96709.50;5875155;23;20261;-80
2023/07/21 02:32:33;;;;;;;1.88;1.27;;;;;;;18.78;53.89;96704.53;5994924;23;20196;-80
2023/07/21 02:34:59;;;;;;;1.42;1.33;;;;;;;18.81;53.75;96703.91;5875005;23;20166;-80
2023/07/21 02:37:25;;;;;;;4.00;1.63;;;;;;;18.85;53.07;96699.59;5997654;23;20229;-80
2023/07/21 02:39:50;;;;;;;1.50;1.40;;;;;;;18.84;52.99;96690.91;5908018;23;20248;-80
2023/07/21 02:42:16;;;;;;;1.88;1.45;;;;;;;18.85;53.16;96695.09;5907938;23;20232;-80
2023/07/21 02:44:41;;;;;;;2.47;1.33;;;;;;;18.83;53.03;96694.66;5908839;23;20220;-80
2023/07/21 02:47:07;;;;;;;3.83;1.65;;;;;;;18.83;53.73;96689.38;5876284;23;20472;-80
2023/07/21 02:49:33;;;;;;;1.67;1.30;;;;;;;18.80;53.74;96692.59;6007216;23;20165;-80
2023/07/21 02:51:58;;;;;;;1.73;1.30;;;;;;;18.81;53.19;96686.22;5875085;23;20250;-80
2023/07/21 02:54:23;;;;;;;2.13;1.45;;;;;;;18.80;52.92;96682.03;5905978;23;20205;-80
2023/07/21 02:56:49;;;;;;;1.80;1.33;;;;;;;18.82;53.47;96681.75;5907450;23;20196;-80
2023/07/21 02:59:15;;;;;;;1.63;1.25;;;;;;;18.83;52.67;96684.09;5885065;23;20158;-80
2023/07/21 03:01:40;;;;;;;1.75;1.33;;;;;;;18.77;53.17;96681.88;5907456;23;20263;-80
2023/07/21 03:04:06;;;;;;;1.48;1.38;;;;;;;18.82;52.96;96693.09;5877262;23;20314;-80
2023/07/21 03:06:33;;;;;;;1.85;1.67;;;;;;;18.96;52.61;96695.56;5884483;23;20059;-80
2023/07/21 03:08:59;;;;;;;1.52;1.42;;;;;;;19.04;53.29;96704.59;5906639;23;20252;-80
2023/07/21 03:11:24;;;;;;;1.98;1.50;;;;;;;19.04;52.67;96697.44;5885440;23;20255;-80
2023/07/21 03:13:49;;;;;;;1.45;1.27;;;;;;;19.00;52.82;96703.63;5875560;23;20263;-79
2023/07/21 03:16:15;;;;;;;1.67;1.55;;;;;;;18.86;54.26;96701.16;5875870;23;20185;-80
2023/07/21 03:18:41;;;;;;;2.28;1.50;;;;;;;18.89;54.73;96719.78;5996261;23;20232;-80
2023/07/21 03:21:06;;;;;;;2.70;1.50;;;;;;;18.90;54.17;96726.63;5996524;23;20173;-80
2023/07/21 03:23:31;;;;;;;2.10;1.38;;;;;;;18.85;54.02;96718.84;5907037;23;20589;-80
2023/07/21 03:25:57;;;;;;;2.20;1.48;;;;;;;18.79;54.32;96704.22;5908068;23;20263;-80
2023/07/21 03:28:23;;;;;;;2.88;1.67;;;;;;;18.71;55.28;96707.63;5907175;23;20181;-80
2023/07/21 03:31:01;;;;;;;3.20;1.63;;;;;;;18.74;56.63;96722.81;5875847;23;20247;-80
2023/07/21 03:33:27;;;;;;;2.25;1.95;;;;;;;18.72;56.76;96714.44;5995454;23;20267;-80
2023/07/21 03:36:04;;;;;;;1.95;1.58;;;;;;;18.81;55.64;96717.88;5876278;23;20236;-80
2023/07/21 03:38:32;;;;;;;2.28;1.50;;;;;;;18.67;55.78;96718.00;5997215;23;20374;-80
2023/07/21 03:41:01;;;;;;;2.10;1.60;;;;;;;18.71;55.83;96726.06;6006386;23;20172;-80
2023/07/21 03:43:27;;;;;;;1.90;1.50;;;;;;;18.68;55.62;96724.06;5884915;23;20254;-80
2023/07/21 03:46:00;;;;;;;1.52;1.42;;;;;;;18.72;55.56;96717.09;5884628;23;20229;-80
2023/07/21 03:48:26;;;;;;;2.78;1.80;;;;;;;18.65;56.27;96720.19;5875488;23;20323;-80
2023/07/21 03:50:57;;;;;;;2.70;1.85;;;;;;;18.56;56.90;96715.97;5876209;23;20597;-80
2023/07/21 03:53:23;;;;;;;1.75;1.65;;;;;;;18.52;57.26;96721.88;6004794;23;20635;-80
2023/07/21 03:55:49;;;;;;;4.13;1.50;;;;;;;18.47;57.95;96724.66;5908235;23;20146;-80
2023/07/21 03:58:15;;;;;;;1.58;1.45;;;;;;;18.48;57.54;96720.91;5997053;23;20164;-80
2023/07/21 04:00:42;;;;;;;1.50;1.40;;;;;;;18.51;57.09;96714.25;5907657;23;20081;-80
2023/07/21 04:03:08;;;;;;;2.85;1.67;;;;;;;18.51;56.62;96727.44;5876798;23;20740;-80
2023/07/21 04:05:33;;;;;;;2.33;1.40;;;;;;;18.46;56.60;96722.31;5899590;23;20656;-82
2023/07/21 04:07:59;;;;;;;1.58;1.33;;;;;;;18.46;57.25;96719.69;5896512;23;20202;-82
2023/07/21 04:10:24;;;;;;;1.73;1.63;;;;;;;18.44;56.83;96719.97;6022246;23;20245;-81
2023/07/21 04:12:50;;;;;;;2.38;1.80;;;;;;;18.46;57.56;96723.09;5893275;23;20023;-81
2023/07/21 04:15:15;;;;;;;2.97;1.77;;;;;;;18.48;57.72;96720.91;5881692;23;20176;-81
2023/07/21 04:17:41;;;;;;;1.50;1.40;;;;;;;18.48;57.12;96712.25;5997092;23;20177;-82
2023/07/21 04:20:09;;;;;;;3.15;1.77;;;;;;;18.45;57.55;96713.63;5906739;23;20010;-88
2023/07/21 04:22:36;;;;;;;2.55;1.77;;;;;;;18.53;57.98;96717.38;5997469;23;20391;-87
2023/07/21 04:25:06;;;;;;;2.72;1.60;;;;;;;18.54;57.47;96718.91;5958818;23;20029;-87
2023/07/21 04:27:35;;;;;;;3.13;1.75;;;;;;;18.45;58.03;96708.34;6102107;23;20059;-87
2023/07/21 04:30:00;;;;;;;2.08;1.90;;;;;;;18.43;58.00;96710.50;5987722;23;20012;-82
2023/07/21 04:32:26;;;;;;;2.35;2.00;;;;;;;18.48;58.44;96704.31;6036773;23;20505;-80
2023/07/21 04:34:51;;;;;;;3.65;2.00;;;;;;;18.49;57.94;96705.88;5893086;23;20077;-81
2023/07/21 04:37:17;;;;;;;2.38;1.95;;;;;;;18.53;58.03;96704.94;5911682;23;20177;-80
2023/07/21 04:39:42;;;;;;;1.80;1.45;;;;;;;18.51;57.65;96703.72;5878152;23;20573;-81
2023/07/21 04:42:11;;;;;;;2.22;1.63;;;;;;;18.59;57.82;96705.56;5911133;23;20635;-82
2023/07/21 04:44:36;;;;;;;2.10;1.90;;;;;;;18.56;58.14;96705.41;5881218;23;20444;-81
2023/07/21 04:47:05;;;;;;;2.28;1.70;;;;;;;18.57;57.59;96705.13;5910770;23;20264;-81
2023/07/21 04:49:33;;;;;;;2.38;1.90;;;;;;;18.68;57.19;96709.03;5881025;23;20153;-81
2023/07/21 04:52:00;;;;;;;2.00;1.80;;;;;;;18.67;57.35;96701.41;5998769;23;20193;-82
2023/07/21 04:54:26;;;;;;;3.97;2.10;;;;;;;18.70;56.82;96700.81;5882223;23;20400;-82
2023/07/21 04:56:52;;;;;;;1.60;1.50;;;;;;;18.78;56.41;96707.97;5879378;23;20161;-82
2023/07/21 04:59:19;;;;;;;2.45;1.58;;;;;;;18.85;56.24;96703.03;5879704;23;20184;-82
2023/07/21 05:01:45;;;;;;;1.67;1.58;;;;;;;18.78;56.10;96688.69;5910035;23;20231;-82
2023/07/21 05:04:11;;;;;;;1.70;1.60;;;;;;;18.93;56.61;96692.78;5900247;23;20245;-82
2023/07/21 05:06:36;;;;;;;1.95;1.75;;;;;;;18.86;57.00;96699.28;5878236;23;20292;-82
2023/07/21 05:09:02;;;;;;;2.05;1.85;;;;;;;18.95;56.60;96704.56;5876221;23;20456;-82
2023/07/21 05:11:27;;;;;;;2.60;2.13;;;;;;;19.00;57.12;96703.63;5880233;23;20389;-81
2023/07/21 05:13:54;;;;;;;1.95;1.70;;;;;;;18.92;56.79;96707.03;5888571;23;20105;-82
2023/07/21 05:16:19;;;;;;;1.73;1.50;;;;;;;18.85;56.75;96695.09;5889137;23;20374;-83
2023/07/21 05:18:45;;;;;;;2.08;1.70;;;;;;;19.02;56.83;96701.47;5877263;23;20225;-82
2023/07/21 05:21:10;;;;;;;1.75;1.65;;;;;;;19.07;56.55;96702.09;5878512;23;20157;-81
2023/07/21 05:23:36;;;;;;;2.47;1.85;;;;;;;19.12;57.11;96701.16;5877617;23;20196;-81
2023/07/21 05:26:02;;;;;;;2.75;1.67;;;;;;;19.20;56.29;96696.97;5878095;23;20382;-82
2023/07/21 05:28:28;;;;;;;3.22;1.75;;;;;;;19.23;57.19;96702.41;5996552;23;20347;-82
2023/07/21 05:30:54;;;;;;;2.22;1.67;;;;;;;19.34;56.79;96694.16;5909988;23;20504;-83
2023/07/21 05:33:19;;;;;;;2.30;1.58;;;;;;;19.41;56.46;96689.16;6032639;23;20154;-81
2023/07/21 05:35:45;;;;;;;1.73;1.55;;;;;;;19.45;55.91;96688.25;5876969;23;20472;-83
2023/07/21 05:38:11;;;;;;;2.28;1.90;;;;;;;19.58;56.10;96689.13;5886016;23;20253;-82
2023/07/21 05:40:36;;;;;;;2.58;2.00;;;;;;;19.70;56.14;96700.94;5878520;23;20208;-82
2023/07/21 05:43:02;;;;;;;2.25;1.80;;;;;;;19.77;55.90;96699.38;5999305;23;20476;-81
2023/07/21 05:45:28;;;;;;;1.75;1.65;;;;;;;19.86;56.10;96706.50;5879656;23;20366;-81
2023/07/21 05:47:55;;;;;;;1.80;1.70;;;;;;;19.86;56.17;96706.50;5879180;23;20189;-81
2023/07/21 05:50:21;;;;;;;2.60;2.00;;;;;;;19.94;56.21;96703.81;5879826;23;20286;-82
2023/07/21 05:52:51;;;;;;;1.77;1.63;;;;;;;20.02;55.79;96710.19;6033318;23;20228;-81
2023/07/21 05:55:16;;;;;;;2.40;1.77;;;;;;;19.97;55.81;96708.47;6000942;23;20338;-82
2023/07/21 05:57:42;;;;;;;2.20;2.00;;;;;;;19.98;56.07;96707.41;5879671;23;20177;-82
2023/07/21 06:00:13;;;;;;;2.38;1.85;;;;;;;20.10;55.69;96704.09;5879313;23;20312;-81
2023/07/21 06:02:38;;;;;;;1.85;1.75;;;;;;;20.09;56.56;96705.16;6005238;23;20254;-82
2023/07/21 06:05:04;;;;;;;3.05;1.80;;;;;;;20.18;56.84;96716.47;5879637;23;20422;-82
2023/07/21 06:07:30;;;;;;;2.25;1.98;;;;;;;20.30;56.12;96715.78;5886237;23;20221;-82
2023/07/21 06:09:56;;;;;;;1.80;1.67;;;;;;;20.33;56.68;96709.13;5999859;23;20180;-81
2023/07/21 06:12:22;;;;;;;2.22;1.75;;;;;;;20.36;56.33;96714.53;5880252;23;20267;-83
2023/07/21 06:14:48;;;;;;;2.22;1.83;;;;;;;20.45;55.49;96711.84;6009397;23;20508;-82
2023/07/21 06:17:13;;;;;;;2.17;1.85;;;;;;;20.45;55.21;96724.28;5888790;23;20184;-81
2023/07/21 06:19:39;;;;;;;3.95;1.90;;;;;;;20.48;53.99;96723.66;5888667;23;20150;-81
2023/07/21 06:22:05;;;;;;;3.20;2.20;;;;;;;20.53;53.80;96729.53;5880206;23;20515;-81
2023/07/21 06:24:30;;;;;;;2.38;2.15;;;;;;;20.55;53.62;96735.28;5895596;23;20059;-81
2023/07/21 06:26:56;;;;;;;2.55;1.83;;;;;;;20.62;53.74;96732.16;5999962;23;20177;-81
2023/07/21 06:29:22;;;;;;;2.97;1.83;;;;;;;20.67;52.75;96725.91;5879145;23;20241;-81
2023/07/21 06:31:49;;;;;;;1.83;1.40;;;;;;;20.76;51.46;96729.28;5912480;23;20226;-81
2023/07/21 06:34:14;;;;;;;2.40;1.90;;;;;;;20.91;50.56;96727.94;5911322;23;20224;-81
2023/07/21 06:36:40;;;;;;;1.70;1.60;;;;;;;20.92;51.21;96732.13;5879120;23;20267;-81
2023/07/21 06:39:06;;;;;;;2.53;1.63;;;;;;;20.91;51.03;96733.22;5876768;23;20461;-82
2023/07/21 06:41:31;;;;;;;3.85;1.90;;;;;;;20.94;50.22;96735.25;5910366;23;20188;-82
2023/07/21 06:43:56;;;;;;;2.05;1.52;;;;;;;20.91;50.57;96727.94;5887153;23;20473;-81
2023/07/21 06:46:22;;;;;;;2.08;1.50;;;;;;;20.94;50.80;96728.06;5878228;23;20365;-82
2023/07/21 06:48:47;;;;;;;2.22;1.60;;;;;;;20.98;51.47;96722.13;5877923;23;20173;-82
2023/07/21 06:51:13;;;;;;;1.58;1.42;;;;;;;20.97;51.38;96718.69;5879429;23;20263;-81
2023/07/21 06:53:38;;;;;;;2.45;1.60;;;;;;;21.08;50.94;96727.03;5878986;23;20397;-82
2023/07/21 06:56:04;;;;;;;1.75;1.65;;;;;;;21.12;49.86;96726.03;5879621;23;20177;-81
2023/07/21 06:58:30;;;;;;;1.88;1.67;;;;;;;21.22;49.65;96724.88;6009191;23;20165;-81
2023/07/21 07:00:57;;;;;;;1.83;1.60;;;;;;;21.31;50.09;96727.47;5911850;23;20256;-82
2023/07/21 07:03:23;;;;;;;3.03;1.75;;;;;;;21.34;50.88;96724.16;5879391;23;20257;-81
2023/07/21 07:05:49;;;;;;;1.67;1.58;;;;;;;21.47;50.05;96719.69;5879700;23;20667;-81
2023/07/21 07:08:15;;;;;;;1.70;1.20;;;;;;;21.60;48.91;96720.53;5878892;23;20389;-81
2023/07/21 07:10:46;;;;;;;2.97;1.52;;;;;;;21.55;49.78;96720.72;6000138;23;20200;-82
2023/07/21 07:13:11;;;;;;;2.28;1.50;;;;;;;21.68;48.95;96728.38;5880179;23;20206;-82
2023/07/21 07:15:37;;;;;;;1.55;1.38;;;;;;;21.77;47.83;96730.94;5912543;23;20551;-82
2023/07/21 07:18:04;;;;;;;2.17;1.30;;;;;;;21.87;46.75;96729.75;5880830;23;20460;-81
2023/07/21 07:20:30;;;;;;;1.45;1.30;;;;;;;21.88;46.33;96736.59;5999483;23;20320;-82
2023/07/21 07:22:56;;;;;;;1.45;1.35;;;;;;;21.91;45.71;96735.16;5888888;23;20225;-80
2023/07/21 07:25:24;;;;;;;1.40;1.30;;;;;;;22.01;45.89;96735.50;5913592;23;20293;-81
2023/07/21 07:27:51;;;;;;;1.75;1.20;;;;;;;22.11;46.58;96728.25;5891824;23;20192;-81
2023/07/21 07:30:17;;;;;;;2.65;1.30;;;;;;;22.16;44.09;96738.63;6012883;23;20356;-81
2023/07/21 07:32:43;;;;;;;1.13;1.02;;;;;;;22.18;45.10;96736.44;6035224;23;20539;-81
2023/07/21 07:35:10;;;;;;;1.80;1.70;;;;;;;22.20;45.02;96742.16;5880482;23;20339;-81
2023/07/21 07:37:35;;;;;;;2.05;1.63;;;;;;;22.15;45.61;96740.50;6002762;23;20197;-81
2023/07/21 07:40:01;;;;;;;1.23;1.13;;;;;;;22.08;46.07;96737.63;5880423;23;20406;-81
2023/07/21 07:42:26;;;;;;;1.70;1.50;;;;;;;22.21;46.83;96739.19;5880393;23;20311;-81
2023/07/21 07:44:58;;;;;;;2.08;1.33;;;;;;;22.27;44.15;96747.69;5881094;23;20228;-81
2023/07/21 07:47:24;;;;;;;1.80;1.42;;;;;;;22.23;45.25;96750.22;5913193;23;20184;-81
2023/07/21 07:49:49;;;;;;;2.15;1.20;;;;;;;22.29;45.02;96753.47;5889443;23;20253;-81
2023/07/21 07:52:17;;;;;;;1.45;1.35;;;;;;;22.46;45.26;96744.50;5912787;23;20391;-81
2023/07/21 07:54:43;;;;;;;1.85;1.48;;;;;;;22.42;46.04;96752.38;5882571;23;20185;-81
2023/07/21 07:57:08;;;;;;;1.30;1.20;;;;;;;22.57;44.95;96748.28;5888693;23;20174;-81
2023/07/21 07:59:34;;;;;;;1.50;1.40;;;;;;;22.56;44.19;96749.38;5911629;23;20281;-81
2023/07/21 08:01:59;;;;;;;1.48;1.35;;;;;;;22.59;43.91;96754.03;5911988;23;20184;-81
2023/07/21 08:04:25;;;;;;;2.42;1.50;;;;;;;22.59;43.08;96754.03;5878039;23;20442;-81
2023/07/21 08:06:51;;;;;;;1.60;1.27;;;;;;;22.54;43.77;96762.22;5878322;23;20540;-82
2023/07/21 08:09:16;;;;;;;1.42;0.98;;;;;;;22.60;42.18;96760.09;5879663;23;20181;-81
2023/07/21 08:11:41;;;;;;;1.70;1.38;;;;;;;22.58;42.13;96757.78;5881862;23;20142;-81
2023/07/21 08:14:07;;;;;;;2.33;1.35;;;;;;;22.69;42.41;96758.13;5880561;23;20150;-81
2023/07/21 08:16:35;;;;;;;1.98;1.05;;;;;;;22.65;43.69;96761.75;6000144;23;20154;-80
2023/07/21 08:19:01;;;;;;;1.90;1.38;;;;;;;22.70;42.49;96757.00;5881898;23;20297;-82
2023/07/21 08:21:30;;;;;;;1.27;0.98;;;;;;;22.62;42.07;96753.38;5999906;23;20460;-81
2023/07/21 08:23:55;;;;;;;1.25;1.08;;;;;;;22.72;41.08;96756.66;5891412;23;20338;-81
2023/07/21 08:26:21;;;;;;;1.52;1.20;;;;;;;22.67;40.28;96756.88;6001098;23;20190;-82
2023/07/21 08:28:47;;;;;;;1.20;1.00;;;;;;;22.67;39.87;96763.00;5880632;23;20425;-81
2023/07/21 08:31:13;;;;;;;1.42;1.02;;;;;;;22.57;40.53;96756.25;5882005;23;20188;-81
2023/07/21 08:33:39;;;;;;;1.88;1.02;;;;;;;22.45;41.10;96750.94;6001127;23;20588;-81
2023/07/21 08:36:05;;;;;;;1.55;1.30;;;;;;;22.43;41.18;96755.78;6001715;23;20390;-81
2023/07/21 08:38:33;;;;;;;3.53;1.17;;;;;;;22.48;40.63;96755.56;5882061;23;20288;-82
2023/07/21 08:41:07;;;;;;;1.48;1.02;;;;;;;22.55;41.19;96753.16;5892275;23;20397;-82
2023/07/21 08:43:32;;;;;;;1.67;0.80;;;;;;;22.40;41.47;96745.84;5890930;23;20284;-81
2023/07/21 08:46:00;;;;;;;1.52;1.00;;;;;;;22.40;40.94;96743.22;5880134;23;20349;-83
2023/07/21 08:48:26;;;;;;;1.48;0.90;;;;;;;22.36;41.36;96745.75;6010835;23;20283;-82
2023/07/21 08:50:56;;;;;;;1.42;1.20;;;;;;;22.37;41.95;96746.53;6000635;23;20419;-82
2023/07/21 08:53:26;;;;;;;1.33;1.17;;;;;;;22.44;42.09;96754.69;5883958;23;20081;-82
2023/07/21 08:55:59;;;;;;;2.67;1.20;;;;;;;22.52;42.09;96756.47;5881588;23;20443;-82
2023/07/21 08:58:25;;;;;;;1.50;1.10;;;;;;;22.48;41.66;96750.25;6011689;23;20141;-80
2023/07/21 09:00:52;;;;;;;1.63;1.27;;;;;;;22.50;41.79;96750.72;6001595;23;20184;-81
2023/07/21 09:03:43;;;;;;;1.95;1.33;;;;;;;22.54;41.63;96745.53;5887179;23;20188;-81
2023/07/21 09:06:12;;;;;;;2.15;1.20;;;;;;;22.52;40.70;96753.81;5880194;23;20208;-82
2023/07/21 09:08:37;;;;;;;2.33;1.10;;;;;;;22.52;40.62;96755.69;5890667;23;20601;-81
2023/07/21 09:11:03;;;;;;;1.92;1.05;;;;;;;22.81;40.68;96754.69;6001251;23;20259;-81
2023/07/21 09:13:30;;;;;;;1.55;1.15;;;;;;;23.21;40.86;96753.94;5887966;23;20268;-82
2023/07/21 09:15:58;;;;;;;1.17;0.82;;;;;;;23.46;37.67;96745.88;5890499;23;20465;-82
2023/07/21 09:18:25;;;;;;;1.20;1.10;;;;;;;23.62;37.28;96749.34;5887628;23;20165;-81
2023/07/21 09:20:51;;;;;;;1.13;0.88;;;;;;;23.96;37.32;96741.09;5911779;23;20050;-83
2023/07/21 09:23:21;;;;;;;0.98;0.80;;;;;;;24.34;35.79;96745.81;5887825;23;20162;-81
2023/07/21 09:25:54;;;;;;;1.80;0.98;;;;;;;24.29;35.91;96749.50;5879356;23;20188;-81
2023/07/21 09:28:21;;;;;;;0.95;0.90;;;;;;;24.40;36.01;96754.31;6000010;23;20192;-81
2023/07/21 09:30:53;;;;;;;1.35;0.90;;;;;;;24.55;35.96;96744.78;6000801;23;20146;-82
2023/07/21 09:33:23;;;;;;;1.10;1.00;;;;;;;24.64;36.01;96750.69;5888834;23;20243;-82
2023/07/21 09:35:50;;;;;;;1.13;0.70;;;;;;;24.53;34.14;96744.34;5888822;23;20305;-82
2023/07/21 09:38:15;;;;;;;1.08;1.00;;;;;;;24.45;34.88;96736.22;5878663;23;20397;-82
2023/07/21 09:40:42;;;;;;;1.05;1.00;;;;;;;24.45;34.70;96741.53;5888968;23;20453;-82
2023/07/21 09:43:09;;;;;;;3.15;0.80;;;;;;;24.56;34.29;96746.34;6008295;23;20229;-81
2023/07/21 09:45:36;;;;;;;1.30;0.93;;;;;;;24.54;35.41;96751.19;5888031;23;20251;-82
2023/07/21 09:48:02;;;;;;;1.00;0.90;;;;;;;24.80;34.75;96753.34;5888209;23;20252;-82
2023/07/21 09:50:28;;;;;;;0.95;0.90;;;;;;;25.00;33.17;96759.44;5880101;23;20192;-82
2023/07/21 09:52:55;;;;;;;1.17;1.10;;;;;;;24.89;33.03;96750.47;5889593;23;20229;-81
2023/07/21 09:55:21;;;;;;;1.30;0.73;;;;;;;24.85;33.68;96753.84;5889177;23;20264;-81
2023/07/21 09:57:48;;;;;;;1.60;1.02;;;;;;;24.71;34.24;96753.53;6008636;23;20337;-81
2023/07/21 10:00:16;;;;;;;1.00;1.00;;;;;;;24.49;35.13;96755.69;5910319;23;20316;-82
2023/07/21 10:02:44;;;;;;;2.20;1.10;;;;;;;24.46;34.76;96761.69;5879650;23;20202;-81
2023/07/21 10:05:10;;;;;;;1.90;1.30;;;;;;;24.16;34.92;96764.00;6000195;23;20373;-83
2023/07/21 10:07:38;;;;;;;0.98;0.85;;;;;;;23.99;37.04;96761.69;5880486;23;20193;-81
2023/07/21 10:10:05;;;;;;;1.75;1.00;;;;;;;24.17;36.72;96759.47;5880849;23;20343;-81
2023/07/21 10:12:42;;;;;;;1.88;0.82;;;;;;;24.28;36.05;96768.47;6000848;23;20454;-82
2023/07/21 10:15:19;;;;;;;1.00;0.90;;;;;;;24.21;35.85;96768.31;5911148;23;20233;-81
2023/07/21 10:18:02;;;;;;;1.27;0.98;;;;;;;24.05;36.64;96774.41;5880049;23;20016;-81
2023/07/21 10:20:40;;;;;;;1.30;0.90;;;;;;;24.03;36.95;96768.66;6000699;23;20180;-81
2023/07/21 10:23:06;;;;;;;1.58;1.00;;;;;;;23.93;37.24;96769.91;6000321;23;20176;-81
2023/07/21 10:25:48;;;;;;;1.23;1.10;;;;;;;24.05;37.11;96771.72;5888538;23;20424;-81
2023/07/21 10:28:14;;;;;;;1.92;1.08;;;;;;;23.93;38.33;96777.13;6000910;23;20320;-81
2023/07/21 10:30:41;;;;;;;1.45;1.10;;;;;;;23.92;37.85;96764.94;5911595;23;20158;-81
2023/07/21 10:33:13;;;;;;;1.52;1.00;;;;;;;23.92;37.65;96773.72;5912472;23;20326;-82
2023/07/21 10:35:39;;;;;;;1.23;1.13;;;;;;;23.73;37.80;96776.19;5880386;23;20289;-83
2023/07/21 10:38:14;;;;;;;1.30;1.20;;;;;;;23.86;36.95;96777.72;5880903;23;20242;-81
2023/07/21 10:40:43;;;;;;;1.20;1.10;;;;;;;23.69;38.11;96781.44;6000781;23;20225;-81
2023/07/21 10:43:09;;;;;;;1.25;1.00;;;;;;;23.68;37.45;96784.41;6000608;23;20196;-81
2023/07/21 10:45:34;;;;;;;1.98;1.30;;;;;;;23.64;37.99;96784.31;5879354;23;20146;-81
2023/07/21 10:48:14;;;;;;;1.30;1.20;;;;;;;23.76;37.53;96783.50;5889271;23;20301;-81
2023/07/21 10:50:58;;;;;;;0.95;0.90;;;;;;;23.72;38.16;96786.06;5880535;23;20142;-81
2023/07/21 10:53:24;;;;;;;1.75;1.33;;;;;;;23.65;38.99;96791.19;5912198;23;20309;-80
2023/07/21 10:55:54;;;;;;;1.25;0.82;;;;;;;23.75;38.20;96788.06;5889777;23;20267;-81
2023/07/21 10:58:20;;;;;;;2.47;1.17;;;;;;;23.63;37.77;96788.13;5880601;23;20184;-82
2023/07/21 11:00:47;;;;;;;1.75;1.10;;;;;;;23.67;37.40;96782.88;5857853;23;20328;-81
2023/07/21 11:03:13;;;;;;;1.38;1.20;;;;;;;23.69;38.03;96785.97;6005986;23;20256;-82
2023/07/21 11:05:39;;;;;;;1.30;1.20;;;;;;;23.60;38.37;96790.69;6000985;23;20346;-81
2023/07/21 11:08:05;;;;;;;1.23;0.95;;;;;;;23.64;38.00;96789.66;5881279;23;20154;-81
2023/07/21 11:10:34;;;;;;;2.13;1.25;;;;;;;23.60;38.19;96794.09;5882398;23;20280;-81
2023/07/21 11:13:01;;;;;;;0.95;0.85;;;;;;;23.56;38.61;96795.88;5890531;23;20391;-81
2023/07/21 11:15:26;;;;;;;1.40;1.15;;;;;;;23.53;39.33;96799.22;5889550;23;20315;-82
2023/07/21 11:18:02;;;;;;;1.70;1.13;;;;;;;23.51;39.73;96796.13;5889918;23;20212;-82
2023/07/21 11:20:27;;;;;;;1.73;1.10;;;;;;;23.44;40.75;96803.91;5879117;23;20257;-82
2023/07/21 11:22:53;;;;;;;3.72;1.80;;;;;;;23.29;40.90;96795.53;5880806;23;20280;-81
2023/07/21 11:25:19;;;;;;;2.17;1.63;;;;;;;23.34;41.17;96797.94;5880388;23;20146;-83
2023/07/21 11:27:45;;;;;;;1.55;1.30;;;;;;;23.31;41.23;96795.97;5903595;23;20421;-81
2023/07/21 11:30:17;;;;;;;1.48;1.30;;;;;;;23.30;41.59;96794.41;5881061;23;20548;-81
2023/07/21 11:32:43;;;;;;;2.58;1.63;;;;;;;23.21;42.36;96798.31;5915521;23;20316;-81